Portada
METAR-TAF:

METAR-TAF

Aeropuertos :

Aeropuerto Internacional de Nador

Nador, Marruecos

latitud: 34-59-20N, longitud: 003-01-42W, altitud: 175 m

Observación

El informe se hizo hace 26 minutos, a las 21:00 UTC
Viento 6 kt del este-noreste
Temperatura 15°C
Humedad 94%
Presión 1009 hPa
Visibilidad: 4000 m
Nubes dispersas a una altura de 600 ft
Cielo nuboso a una altura de 20000 ft
neblina

METAR: GMMW 172100Z 07006KT 4000 BR SCT006 BKN200 15/14 Q1009 NOSIG

Hora: 21:26 (21:26 UTC)

Pronóstico

El informe se hizo hace 4 horas y 26 minutos, a las 17:00 UTC
Pronóstico válido del 17 a las 18 UTC al 18 a las 24 UTC
Viento 9 kt del norte-noreste
Visibilidad: 6000 m
Nubes dispersas a una altura de 1000 ft
Cielo nuboso a una altura de 20000 ft
Probabilidad 40%
del 18 a las 00 UTC al 18 a las 06 UTC
Visibilidad: 5000 m
neblina

TAF: GMMW 171700Z 1718/1824 03009KT 6000 SCT010 BKN200 PROB40 1800/1806 5000 BR

Observaciones y pronósticos meteorológicos de más de 4000 aeropuertos (mensajes METAR y TAF).

Los puntos amarillos y rojos representan las estaciones disponibles.

Ponga el ratón en el punto deseado para ver el nombre de la estación.

Haga clic para ver las observaciones y los pronósticos meteorológicos.

Para cambiar el mapa : haga clic en los botones verdes con una cruz de color negro para hacer un zoom, en el botón verde con un guión para alejar o en las flechas verdes para mapas adyacentes.


METAR-TAF: